sensor_id;sensor_type;location;lat;lon;timestamp;pressure;altitude;pressure_sealevel;temperature;humidity
71424;BME280;59240;51.370;-0.486;2023-11-19T00:03:09;100766.88;;;12.12;100.00
71424;BME280;59240;51.370;-0.486;2023-11-19T00:08:07;100745.59;;;11.96;100.00
71424;BME280;59240;51.370;-0.486;2023-11-19T00:13:05;100786.66;;;12.20;100.00
71424;BME280;59240;51.370;-0.486;2023-11-19T00:18:03;100793.78;;;12.15;100.00
71424;BME280;59240;51.370;-0.486;2023-11-19T00:23:01;100772.56;;;11.96;100.00
71424;BME280;59240;51.370;-0.486;2023-11-19T00:27:59;100793.16;;;12.05;100.00
71424;BME280;59240;51.370;-0.486;2023-11-19T00:32:56;100772.56;;;11.96;100.00
71424;BME280;59240;51.370;-0.486;2023-11-19T00:37:54;100777.59;;;12.02;100.00
71424;BME280;59240;51.370;-0.486;2023-11-19T00:42:51;100766.31;;;12.00;100.00
71424;BME280;59240;51.370;-0.486;2023-11-19T00:47:48;100778.50;;;12.01;100.00
71424;BME280;59240;51.370;-0.486;2023-11-19T00:52:45;100750.94;;;11.91;100.00
71424;BME280;59240;51.370;-0.486;2023-11-19T00:57:42;100768.94;;;12.00;100.00
71424;BME280;59240;51.370;-0.486;2023-11-19T01:02:39;100767.31;;;11.96;100.00
71424;BME280;59240;51.370;-0.486;2023-11-19T01:07:36;100745.94;;;11.84;100.00
71424;BME280;59240;51.370;-0.486;2023-11-19T01:12:33;100756.88;;;11.96;100.00
71424;BME280;59240;51.370;-0.486;2023-11-19T01:17:30;100763.91;;;11.94;100.00
71424;BME280;59240;51.370;-0.486;2023-11-19T01:22:28;100727.91;;;11.73;100.00
71424;BME280;59240;51.370;-0.486;2023-11-19T01:27:25;100743.50;;;11.76;100.00
71424;BME280;59240;51.370;-0.486;2023-11-19T01:32:22;100754.44;;;11.90;100.00
71424;BME280;59240;51.370;-0.486;2023-11-19T01:37:20;100726.13;;;11.75;100.00
71424;BME280;59240;51.370;-0.486;2023-11-19T01:42:17;100740.66;;;11.85;100.00
71424;BME280;59240;51.370;-0.486;2023-11-19T01:47:14;100750.03;;;11.92;100.00
71424;BME280;59240;51.370;-0.486;2023-11-19T01:52:11;100751.25;;;11.81;100.00
71424;BME280;59240;51.370;-0.486;2023-11-19T01:57:09;100741.50;;;11.87;100.00
71424;BME280;59240;51.370;-0.486;2023-11-19T02:02:06;100761.50;;;11.87;100.00
71424;BME280;59240;51.370;-0.486;2023-11-19T02:07:03;100750.41;;;11.77;100.00
71424;BME280;59240;51.370;-0.486;2023-11-19T02:12:00;100764.88;;;11.90;100.00
71424;BME280;59240;51.370;-0.486;2023-11-19T02:17:01;100774.53;;;11.88;100.00
71424;BME280;59240;51.370;-0.486;2023-11-19T02:21:58;100774.53;;;11.88;100.00
71424;BME280;59240;51.370;-0.486;2023-11-19T02:27:10;100753.94;;;11.76;100.00
71424;BME280;59240;51.370;-0.486;2023-11-19T02:32:11;100766.72;;;11.87;100.00
71424;BME280;59240;51.370;-0.486;2023-11-19T02:37:10;100735.72;;;11.74;100.00
71424;BME280;59240;51.370;-0.486;2023-11-19T02:42:08;100740.72;;;11.84;100.00
71424;BME280;59240;51.370;-0.486;2023-11-19T02:47:06;100735.53;;;11.82;100.00
71424;BME280;59240;51.370;-0.486;2023-11-19T02:52:05;100723.38;;;11.79;100.00
71424;BME280;59240;51.370;-0.486;2023-11-19T02:57:03;100733.81;;;11.79;100.00
71424;BME280;59240;51.370;-0.486;2023-11-19T03:02:01;100719.22;;;11.74;100.00
71424;BME280;59240;51.370;-0.486;2023-11-19T03:06:58;100715.75;;;11.72;100.00
71424;BME280;59240;51.370;-0.486;2023-11-19T03:11:55;100726.84;;;11.82;100.00
71424;BME280;59240;51.370;-0.486;2023-11-19T03:16:52;100732.81;;;11.85;100.00
71424;BME280;59240;51.370;-0.486;2023-11-19T03:21:48;100723.25;;;11.86;100.00
71424;BME280;59240;51.370;-0.486;2023-11-19T03:26:49;100724.94;;;11.88;100.00
71424;BME280;59240;51.370;-0.486;2023-11-19T03:31:46;100700.97;;;11.72;100.00
71424;BME280;59240;51.370;-0.486;2023-11-19T03:36:43;100712.25;;;11.73;100.00
71424;BME280;59240;51.370;-0.486;2023-11-19T03:41:40;100729.41;;;11.83;100.00
71424;BME280;59240;51.370;-0.486;2023-11-19T03:46:38;100701.06;;;11.69;100.00
71424;BME280;59240;51.370;-0.486;2023-11-19T03:51:35;100727.59;;;11.85;100.00
71424;BME280;59240;51.370;-0.486;2023-11-19T03:56:32;100750.13;;;11.89;100.00
71424;BME280;59240;51.370;-0.486;2023-11-19T04:01:29;100743.38;;;11.82;100.00
71424;BME280;59240;51.370;-0.486;2023-11-19T04:06:26;100736.28;;;11.86;100.00
71424;BME280;59240;51.370;-0.486;2023-11-19T04:11:23;100732.81;;;11.85;100.00
71424;BME280;59240;51.370;-0.486;2023-11-19T04:16:25;100738.19;;;11.79;100.00
71424;BME280;59240;51.370;-0.486;2023-11-19T04:21:23;100747.69;;;11.83;100.00
71424;BME280;59240;51.370;-0.486;2023-11-19T04:26:20;100727.69;;;11.82;100.00
71424;BME280;59240;51.370;-0.486;2023-11-19T04:31:17;100745.06;;;11.83;100.00
71424;BME280;59240;51.370;-0.486;2023-11-19T04:36:18;100738.00;;;11.87;100.00
71424;BME280;59240;51.370;-0.486;2023-11-19T04:41:15;100744.97;;;11.86;100.00
71424;BME280;59240;51.370;-0.486;2023-11-19T04:46:13;100738.16;;;11.82;100.00
71424;BME280;59240;51.370;-0.486;2023-11-19T04:51:10;100731.13;;;11.84;100.00
71424;BME280;59240;51.370;-0.486;2023-11-19T04:56:10;100744.97;;;11.88;100.00
71424;BME280;59240;51.370;-0.486;2023-11-19T05:01:13;100735.44;;;11.85;100.00
71424;BME280;59240;51.370;-0.486;2023-11-19T05:06:12;100725.91;;;11.84;100.00
71424;BME280;59240;51.370;-0.486;2023-11-19T05:11:09;100728.47;;;11.86;100.00
71424;BME280;59240;51.370;-0.486;2023-11-19T05:16:08;100730.03;;;11.91;100.00
71424;BME280;59240;51.370;-0.486;2023-11-19T05:21:06;100718.69;;;11.92;100.00
71424;BME280;59240;51.370;-0.486;2023-11-19T05:26:05;100722.03;;;11.97;100.00
71424;BME280;59240;51.370;-0.486;2023-11-19T05:31:04;100735.72;;;12.05;100.00
71424;BME280;59240;51.370;-0.486;2023-11-19T05:36:01;100726.00;;;12.11;100.00
71424;BME280;59240;51.370;-0.486;2023-11-19T05:41:00;100718.00;;;12.17;100.00
71424;BME280;59240;51.370;-0.486;2023-11-19T05:45:56;100712.50;;;12.26;100.00
71424;BME280;59240;51.370;-0.486;2023-11-19T05:50:53;100715.91;;;12.28;100.00
71424;BME280;59240;51.370;-0.486;2023-11-19T05:55:51;100710.69;;;12.28;100.00
71424;BME280;59240;51.370;-0.486;2023-11-19T06:00:56;100709.81;;;12.27;100.00
71424;BME280;59240;51.370;-0.486;2023-11-19T06:05:53;100722.94;;;12.26;100.00
71424;BME280;59240;51.370;-0.486;2023-11-19T06:10:53;100714.31;;;12.24;100.00
71424;BME280;59240;51.370;-0.486;2023-11-19T06:15:50;100704.94;;;12.17;100.00
71424;BME280;59240;51.370;-0.486;2023-11-19T06:20:47;100712.84;;;12.14;100.00
71424;BME280;59240;51.370;-0.486;2023-11-19T06:25:44;100720.66;;;12.15;100.00
71424;BME280;59240;51.370;-0.486;2023-11-19T06:30:41;100714.78;;;12.07;100.00
71424;BME280;59240;51.370;-0.486;2023-11-19T06:35:38;100707.91;;;12.04;100.00
71424;BME280;59240;51.370;-0.486;2023-11-19T06:40:35;100693.63;;;11.87;100.00
71424;BME280;59240;51.370;-0.486;2023-11-19T06:45:32;100715.00;;;11.99;100.00
71424;BME280;59240;51.370;-0.486;2023-11-19T06:50:29;100723.91;;;11.92;100.00
71424;BME280;59240;51.370;-0.486;2023-11-19T06:55:26;100688.84;;;11.70;100.00
71424;BME280;59240;51.370;-0.486;2023-11-19T07:00:23;100691.38;;;11.73;100.00
71424;BME280;59240;51.370;-0.486;2023-11-19T07:05:20;100706.66;;;11.88;100.00
71424;BME280;59240;51.370;-0.486;2023-11-19T07:10:17;100677.44;;;11.74;100.00
71424;BME280;59240;51.370;-0.486;2023-11-19T07:15:15;100694.69;;;11.81;100.00
71424;BME280;59240;51.370;-0.486;2023-11-19T07:20:14;100701.63;;;11.79;100.00
71424;BME280;59240;51.370;-0.486;2023-11-19T07:25:15;100669.06;;;11.63;100.00
71424;BME280;59240;51.370;-0.486;2023-11-19T07:30:14;100676.09;;;11.61;100.00
71424;BME280;59240;51.370;-0.486;2023-11-19T07:35:11;100661.66;;;11.47;100.00
71424;BME280;59240;51.370;-0.486;2023-11-19T07:40:08;100714.06;;;11.71;100.00
71424;BME280;59240;51.370;-0.486;2023-11-19T07:45:06;100709.53;;;11.77;100.00
71424;BME280;59240;51.370;-0.486;2023-11-19T07:50:03;100711.28;;;11.77;100.00
71424;BME280;59240;51.370;-0.486;2023-11-19T07:55:00;100717.31;;;11.81;100.00
71424;BME280;59240;51.370;-0.486;2023-11-19T07:59:58;100715.28;;;11.90;100.00
71424;BME280;59240;51.370;-0.486;2023-11-19T08:04:54;100705.59;;;11.94;100.00
71424;BME280;59240;51.370;-0.486;2023-11-19T08:09:52;100699.03;;;11.79;100.00
71424;BME280;59240;51.370;-0.486;2023-11-19T08:14:51;100723.56;;;12.04;100.00
71424;BME280;59240;51.370;-0.486;2023-11-19T08:19:50;100716.66;;;12.03;100.00
71424;BME280;59240;51.370;-0.486;2023-11-19T08:24:47;100716.47;;;12.10;100.00
71424;BME280;59240;51.370;-0.486;2023-11-19T08:29:46;100730.16;;;12.18;100.00
71424;BME280;59240;51.370;-0.486;2023-11-19T08:34:42;100704.31;;;12.09;100.00
71424;BME280;59240;51.370;-0.486;2023-11-19T08:39:39;100700.53;;;12.19;100.00
71424;BME280;59240;51.370;-0.486;2023-11-19T08:44:36;100730.06;;;12.50;100.00
71424;BME280;59240;51.370;-0.486;2023-11-19T08:49:33;100724.59;;;12.58;100.00
71424;BME280;59240;51.370;-0.486;2023-11-19T08:54:30;100728.84;;;12.60;100.00
71424;BME280;59240;51.370;-0.486;2023-11-19T08:59:27;100733.88;;;12.67;100.00
71424;BME280;59240;51.370;-0.486;2023-11-19T09:04:24;100745.88;;;12.74;100.00
71424;BME280;59240;51.370;-0.486;2023-11-19T09:09:21;100714.81;;;12.65;100.00
71424;BME280;59240;51.370;-0.486;2023-11-19T09:14:18;100725.53;;;12.83;100.00
71424;BME280;59240;51.370;-0.486;2023-11-19T09:19:15;100689.47;;;12.67;100.00
71424;BME280;59240;51.370;-0.486;2023-11-19T09:24:12;100696.06;;;12.78;100.00
71424;BME280;59240;51.370;-0.486;2023-11-19T09:29:12;100750.81;;;13.09;100.00
71424;BME280;59240;51.370;-0.486;2023-11-19T09:34:11;100722.66;;;12.91;100.00
71424;BME280;59240;51.370;-0.486;2023-11-19T09:39:07;100708.69;;;12.92;100.00
71424;BME280;59240;51.370;-0.486;2023-11-19T09:44:05;100723.66;;;13.13;100.00
71424;BME280;59240;51.370;-0.486;2023-11-19T09:49:02;100701.44;;;13.00;100.00
71424;BME280;59240;51.370;-0.486;2023-11-19T09:54:00;100717.94;;;13.29;100.00
71424;BME280;59240;51.370;-0.486;2023-11-19T09:58:57;100702.88;;;13.35;100.00
71424;BME280;59240;51.370;-0.486;2023-11-19T10:03:55;100708.56;;;13.48;100.00
71424;BME280;59240;51.370;-0.486;2023-11-19T10:08:52;100684.78;;;13.54;100.00
71424;BME280;59240;51.370;-0.486;2023-11-19T10:13:49;100695.16;;;13.81;100.00
71424;BME280;59240;51.370;-0.486;2023-11-19T10:18:50;100698.75;;;14.02;100.00
71424;BME280;59240;51.370;-0.486;2023-11-19T10:23:48;100688.38;;;13.99;100.00
71424;BME280;59240;51.370;-0.486;2023-11-19T10:28:55;100676.47;;;14.13;100.00
71424;BME280;59240;51.370;-0.486;2023-11-19T10:34:00;100671.47;;;14.07;100.00
71424;BME280;59240;51.370;-0.486;2023-11-19T10:39:02;100693.56;;;14.23;100.00
71424;BME280;59240;51.370;-0.486;2023-11-19T10:44:02;100712.22;;;14.38;93.85
71424;BME280;59240;51.370;-0.486;2023-11-19T10:48:59;100694.34;;;14.49;100.00
71424;BME280;59240;51.370;-0.486;2023-11-19T10:54:06;100701.88;;;14.35;95.93
71424;BME280;59240;51.370;-0.486;2023-11-19T10:59:04;100696.84;;;14.29;87.01
71424;BME280;59240;51.370;-0.486;2023-11-19T11:04:22;100699.69;;;14.46;100.00
71424;BME280;59240;51.370;-0.486;2023-11-19T11:09:20;100708.44;;;14.45;96.36
71424;BME280;59240;51.370;-0.486;2023-11-19T11:14:18;100687.53;;;14.43;97.00
71424;BME280;59240;51.370;-0.486;2023-11-19T11:19:17;100701.28;;;14.50;97.74
71424;BME280;59240;51.370;-0.486;2023-11-19T11:35:35;100692.81;;;14.65;90.96
71424;BME280;59240;51.370;-0.486;2023-11-19T11:40:38;100678.66;;;14.69;95.91
71424;BME280;59240;51.370;-0.486;2023-11-19T11:45:37;100670.28;;;14.82;95.67
71424;BME280;59240;51.370;-0.486;2023-11-19T11:51:07;100663.22;;;14.84;93.07
71424;BME280;59240;51.370;-0.486;2023-11-19T11:56:04;100660.63;;;14.82;94.67
71424;BME280;59240;51.370;-0.486;2023-11-19T12:01:05;100657.06;;;14.85;89.87
71424;BME280;59240;51.370;-0.486;2023-11-19T12:06:04;100629.25;;;14.81;94.32
71424;BME280;59240;51.370;-0.486;2023-11-19T12:11:01;100614.16;;;14.86;92.06
71424;BME280;59240;51.370;-0.486;2023-11-19T12:20:58;100648.47;;;15.01;91.61
71424;BME280;59240;51.370;-0.486;2023-11-19T12:25:58;100632.94;;;14.97;88.03
71424;BME280;59240;51.370;-0.486;2023-11-19T12:31:08;100651.44;;;15.14;87.94
71424;BME280;59240;51.370;-0.486;2023-11-19T12:36:08;100622.50;;;15.16;92.79
71424;BME280;59240;51.370;-0.486;2023-11-19T12:41:06;100634.91;;;15.12;90.33
71424;BME280;59240;51.370;-0.486;2023-11-19T12:46:24;100625.72;;;15.02;91.82
71424;BME280;59240;51.370;-0.486;2023-11-19T12:51:21;100591.88;;;14.96;93.04
71424;BME280;59240;51.370;-0.486;2023-11-19T12:56:18;100620.09;;;15.11;87.95
71424;BME280;59240;51.370;-0.486;2023-11-19T13:01:17;100604.59;;;15.05;93.94
71424;BME280;59240;51.370;-0.486;2023-11-19T13:06:15;100602.50;;;15.13;91.91
71424;BME280;59240;51.370;-0.486;2023-11-19T13:11:12;100584.59;;;15.02;91.34
71424;BME280;59240;51.370;-0.486;2023-11-19T13:16:09;100612.72;;;15.19;86.38
71424;BME280;59240;51.370;-0.486;2023-11-19T13:21:06;100609.19;;;15.20;91.04
71424;BME280;59240;51.370;-0.486;2023-11-19T13:26:03;100602.09;;;15.22;92.17
71424;BME280;59240;51.370;-0.486;2023-11-19T13:31:00;100578.22;;;15.08;90.69
71424;BME280;59240;51.370;-0.486;2023-11-19T13:35:57;100567.88;;;15.05;91.83
71424;BME280;59240;51.370;-0.486;2023-11-19T13:40:54;100571.53;;;15.01;89.81
71424;BME280;59240;51.370;-0.486;2023-11-19T13:45:51;100565.25;;;15.05;88.87
71424;BME280;59240;51.370;-0.486;2023-11-19T13:50:50;100577.03;;;15.15;87.78
71424;BME280;59240;51.370;-0.486;2023-11-19T13:55:47;100562.94;;;15.18;89.61
71424;BME280;59240;51.370;-0.486;2023-11-19T14:00:47;100556.53;;;15.23;87.99
71424;BME280;59240;51.370;-0.486;2023-11-19T14:05:43;100544.50;;;15.19;89.80
71424;BME280;59240;51.370;-0.486;2023-11-19T14:10:40;100564.09;;;15.31;90.34
71424;BME280;59240;51.370;-0.486;2023-11-19T14:15:37;100566.38;;;15.39;90.71
71424;BME280;59240;51.370;-0.486;2023-11-19T14:20:34;100560.31;;;15.37;89.68
71424;BME280;59240;51.370;-0.486;2023-11-19T14:25:32;100541.09;;;15.17;89.78
71424;BME280;59240;51.370;-0.486;2023-11-19T14:30:29;100565.22;;;15.25;91.04
71424;BME280;59240;51.370;-0.486;2023-11-19T14:35:26;100576.66;;;15.24;89.33
71424;BME280;59240;51.370;-0.486;2023-11-19T14:40:22;100552.72;;;15.12;90.82
71424;BME280;59240;51.370;-0.486;2023-11-19T14:45:38;100582.50;;;15.11;89.91
71424;BME280;59240;51.370;-0.486;2023-11-19T14:50:45;100579.22;;;15.05;90.74
71424;BME280;59240;51.370;-0.486;2023-11-19T14:55:41;100566.50;;;14.96;91.03
71424;BME280;59240;51.370;-0.486;2023-11-19T15:00:38;100579.31;;;14.84;91.10
71424;BME280;59240;51.370;-0.486;2023-11-19T15:05:35;100594.63;;;14.93;90.84
71424;BME280;59240;51.370;-0.486;2023-11-19T15:10:32;100584.53;;;14.84;90.08
71424;BME280;59240;51.370;-0.486;2023-11-19T15:15:29;100621.13;;;14.87;91.53
71424;BME280;59240;51.370;-0.486;2023-11-19T15:20:30;100622.81;;;14.88;89.69
71424;BME280;59240;51.370;-0.486;2023-11-19T15:25:28;100624.25;;;14.95;91.00
71424;BME280;59240;51.370;-0.486;2023-11-19T15:30:24;100626.25;;;14.90;90.28
71424;BME280;59240;51.370;-0.486;2023-11-19T15:35:23;100632.28;;;14.92;90.86
71424;BME280;59240;51.370;-0.486;2023-11-19T15:40:21;100648.94;;;14.91;91.79
71424;BME280;59240;51.370;-0.486;2023-11-19T15:45:17;100623.59;;;14.69;91.69
71424;BME280;59240;51.370;-0.486;2023-11-19T15:50:14;100646.16;;;14.73;92.40
71424;BME280;59240;51.370;-0.486;2023-11-19T15:55:11;100657.03;;;14.64;93.07
71424;BME280;59240;51.370;-0.486;2023-11-19T16:00:11;100656.72;;;14.50;94.37
71424;BME280;59240;51.370;-0.486;2023-11-19T16:05:08;100666.63;;;14.42;93.75
71424;BME280;59240;51.370;-0.486;2023-11-19T16:10:12;100675.53;;;14.38;94.90
71424;BME280;59240;51.370;-0.486;2023-11-19T16:15:10;100663.56;;;14.31;94.16
71424;BME280;59240;51.370;-0.486;2023-11-19T16:20:07;100687.09;;;14.32;94.30
71424;BME280;59240;51.370;-0.486;2023-11-19T16:25:08;100689.00;;;14.29;94.87
71424;BME280;59240;51.370;-0.486;2023-11-19T16:30:05;100657.19;;;13.92;95.50
71424;BME280;59240;51.370;-0.486;2023-11-19T16:35:03;100715.75;;;14.13;95.89
71424;BME280;59240;51.370;-0.486;2023-11-19T16:40:00;100707.13;;;13.88;96.17
71424;BME280;59240;51.370;-0.486;2023-11-19T16:44:57;100719.53;;;13.83;96.46
71424;BME280;59240;51.370;-0.486;2023-11-19T16:49:53;100744.22;;;13.76;97.60
71424;BME280;59240;51.370;-0.486;2023-11-19T16:54:55;100746.25;;;13.67;98.68
71424;BME280;59240;51.370;-0.486;2023-11-19T16:59:52;100754.47;;;13.57;97.60
71424;BME280;59240;51.370;-0.486;2023-11-19T17:04:53;100722.22;;;13.31;98.34
71424;BME280;59240;51.370;-0.486;2023-11-19T17:09:49;100766.66;;;13.58;98.95
71424;BME280;59240;51.370;-0.486;2023-11-19T17:14:46;100748.28;;;13.34;99.45
71424;BME280;59240;51.370;-0.486;2023-11-19T17:19:43;100766.00;;;13.51;99.14
71424;BME280;59240;51.370;-0.486;2023-11-19T17:24:40;100783.66;;;13.46;99.73
71424;BME280;59240;51.370;-0.486;2023-11-19T17:29:37;100784.13;;;13.31;99.89
71424;BME280;59240;51.370;-0.486;2023-11-19T17:34:35;100790.13;;;13.34;100.00
71424;BME280;59240;51.370;-0.486;2023-11-19T17:39:32;100793.88;;;13.27;99.80
71424;BME280;59240;51.370;-0.486;2023-11-19T17:44:30;100796.97;;;13.10;100.00
71424;BME280;59240;51.370;-0.486;2023-11-19T17:49:27;100802.97;;;13.14;100.00
71424;BME280;59240;51.370;-0.486;2023-11-19T17:54:24;100801.91;;;12.93;100.00
71424;BME280;59240;51.370;-0.486;2023-11-19T17:59:21;100821.00;;;12.95;100.00
71424;BME280;59240;51.370;-0.486;2023-11-19T18:04:25;100762.69;;;12.65;100.00
71424;BME280;59240;51.370;-0.486;2023-11-19T18:09:23;100810.72;;;12.89;100.00
71424;BME280;59240;51.370;-0.486;2023-11-19T18:14:19;100796.25;;;12.79;100.00
71424;BME280;59240;51.370;-0.486;2023-11-19T18:19:16;100827.25;;;12.91;100.00
71424;BME280;59240;51.370;-0.486;2023-11-19T18:24:16;100820.69;;;12.78;100.00
71424;BME280;59240;51.370;-0.486;2023-11-19T18:29:14;100843.00;;;12.88;100.00
71424;BME280;59240;51.370;-0.486;2023-11-19T18:34:13;100837.72;;;12.91;100.00
71424;BME280;59240;51.370;-0.486;2023-11-19T18:39:10;100843.13;;;12.85;100.00
71424;BME280;59240;51.370;-0.486;2023-11-19T18:44:09;100840.75;;;12.76;100.00
71424;BME280;59240;51.370;-0.486;2023-11-19T18:49:06;100822.25;;;12.54;100.00
71424;BME280;59240;51.370;-0.486;2023-11-19T18:54:05;100842.88;;;12.65;100.00
71424;BME280;59240;51.370;-0.486;2023-11-19T18:59:03;100843.00;;;12.60;100.00
71424;BME280;59240;51.370;-0.486;2023-11-19T19:04:05;100829.34;;;12.50;100.00
71424;BME280;59240;51.370;-0.486;2023-11-19T19:09:07;100840.78;;;12.46;100.00
71424;BME280;59240;51.370;-0.486;2023-11-19T19:14:03;100866.00;;;12.47;100.00
71424;BME280;59240;51.370;-0.486;2023-11-19T19:19:01;100867.00;;;12.43;100.00
71424;BME280;59240;51.370;-0.486;2023-11-19T19:23:58;100867.06;;;12.40;100.00
71424;BME280;59240;51.370;-0.486;2023-11-19T19:29:00;100853.28;;;12.35;100.00
71424;BME280;59240;51.370;-0.486;2023-11-19T19:33:58;100863.44;;;12.46;100.00
71424;BME280;59240;51.370;-0.486;2023-11-19T19:38:55;100865.28;;;12.42;100.00
71424;BME280;59240;51.370;-0.486;2023-11-19T19:43:52;100859.97;;;12.45;100.00
71424;BME280;59240;51.370;-0.486;2023-11-19T19:48:49;100859.69;;;12.54;100.00
71424;BME280;59240;51.370;-0.486;2023-11-19T19:53:47;100822.03;;;12.32;100.00
71424;BME280;59240;51.370;-0.486;2023-11-19T19:58:44;100847.06;;;12.39;100.00
71424;BME280;59240;51.370;-0.486;2023-11-19T20:03:41;100833.53;;;12.25;100.00
71424;BME280;59240;51.370;-0.486;2023-11-19T20:08:38;100859.28;;;12.39;100.00
71424;BME280;59240;51.370;-0.486;2023-11-19T20:13:36;100892.97;;;12.48;100.00
71424;BME280;59240;51.370;-0.486;2023-11-19T20:18:33;100876.09;;;12.30;100.00
71424;BME280;59240;51.370;-0.486;2023-11-19T20:23:30;100848.75;;;12.11;99.47
71424;BME280;59240;51.370;-0.486;2023-11-19T20:28:27;100893.28;;;12.37;100.00
71424;BME280;59240;51.370;-0.486;2023-11-19T20:33:24;100900.41;;;12.32;100.00
71424;BME280;59240;51.370;-0.486;2023-11-19T20:38:22;100900.56;;;12.26;100.00
71424;BME280;59240;51.370;-0.486;2023-11-19T20:43:19;100915.63;;;12.16;100.00
71424;BME280;59240;51.370;-0.486;2023-11-19T20:48:18;100908.88;;;12.08;100.00
71424;BME280;59240;51.370;-0.486;2023-11-19T20:53:15;100921.13;;;12.05;100.00
71424;BME280;59240;51.370;-0.486;2023-11-19T20:58:12;100886.03;;;11.83;99.62
71424;BME280;59240;51.370;-0.486;2023-11-19T21:03:09;100913.38;;;12.02;100.00
71424;BME280;59240;51.370;-0.486;2023-11-19T21:08:07;100921.81;;;12.12;100.00
71424;BME280;59240;51.370;-0.486;2023-11-19T21:13:06;100936.47;;;12.18;100.00
71424;BME280;59240;51.370;-0.486;2023-11-19T21:18:03;100905.66;;;11.98;100.00
71424;BME280;59240;51.370;-0.486;2023-11-19T21:23:00;100927.25;;;12.04;99.24
71424;BME280;59240;51.370;-0.486;2023-11-19T21:27:57;100910.31;;;11.85;100.00
71424;BME280;59240;51.370;-0.486;2023-11-19T21:32:53;100975.75;;;12.15;100.00
71424;BME280;59240;51.370;-0.486;2023-11-19T21:37:50;100969.69;;;12.13;100.00
71424;BME280;59240;51.370;-0.486;2023-11-19T21:42:47;100982.59;;;12.19;100.00
71424;BME280;59240;51.370;-0.486;2023-11-19T21:47:45;100956.78;;;12.07;100.00
71424;BME280;59240;51.370;-0.486;2023-11-19T21:52:42;100973.78;;;12.23;100.00
71424;BME280;59240;51.370;-0.486;2023-11-19T21:57:40;100948.03;;;12.08;100.00
71424;BME280;59240;51.370;-0.486;2023-11-19T22:02:38;100979.00;;;12.23;100.00
71424;BME280;59240;51.370;-0.486;2023-11-19T22:07:35;100988.56;;;12.24;100.00
71424;BME280;59240;51.370;-0.486;2023-11-19T22:12:32;100983.38;;;12.22;100.00
71424;BME280;59240;51.370;-0.486;2023-11-19T22:17:29;100986.75;;;12.26;100.00
71424;BME280;59240;51.370;-0.486;2023-11-19T22:22:26;100980.63;;;12.27;100.00
71424;BME280;59240;51.370;-0.486;2023-11-19T22:27:24;100936.03;;;12.00;100.00
71424;BME280;59240;51.370;-0.486;2023-11-19T22:32:20;100971.97;;;12.25;100.00
71424;BME280;59240;51.370;-0.486;2023-11-19T22:37:20;100971.97;;;12.25;100.00
71424;BME280;59240;51.370;-0.486;2023-11-19T22:42:19;100949.69;;;12.12;100.00
71424;BME280;59240;51.370;-0.486;2023-11-19T22:47:16;100956.63;;;12.13;100.00
71424;BME280;59240;51.370;-0.486;2023-11-19T22:52:13;100954.59;;;12.24;100.00
71424;BME280;59240;51.370;-0.486;2023-11-19T22:57:10;100964.34;;;12.17;100.00
71424;BME280;59240;51.370;-0.486;2023-11-19T23:02:07;100967.16;;;12.10;99.88
71424;BME280;59240;51.370;-0.486;2023-11-19T23:07:04;100937.13;;;11.92;99.09
71424;BME280;59240;51.370;-0.486;2023-11-19T23:12:02;100958.44;;;12.11;99.67
71424;BME280;59240;51.370;-0.486;2023-11-19T23:17:01;100980.38;;;12.03;100.00
71424;BME280;59240;51.370;-0.486;2023-11-19T23:22:00;100979.72;;;11.94;100.00
71424;BME280;59240;51.370;-0.486;2023-11-19T23:26:57;100989.44;;;11.89;100.00
71424;BME280;59240;51.370;-0.486;2023-11-19T23:31:55;100992.22;;;11.81;100.00
71424;BME280;59240;51.370;-0.486;2023-11-19T23:36:52;100986.28;;;11.73;100.00
71424;BME280;59240;51.370;-0.486;2023-11-19T23:41:49;100989.09;;;11.64;100.00
71424;BME280;59240;51.370;-0.486;2023-11-19T23:46:45;100987.41;;;11.63;100.00
71424;BME280;59240;51.370;-0.486;2023-11-19T23:51:42;101009.09;;;11.65;100.00
71424;BME280;59240;51.370;-0.486;2023-11-19T23:56:39;100989.19;;;11.61;100.00
